Time;durP1;ratioP1;P1;durP2;ratioP2;P2;SDS_P1;SDS_P2;PMS_P1;PMS_P2;Temp;Humidity;BMP_temperature;BMP_pressure;BME280_temperature;BME280_humidity;BME280_pressure;Samples;Min_cycle;Max_cycle;Signal;HPM_P1;HPM_P2
2023/06/12 00:00:05;;;;;;;2.30;1.65;;;25.70;45.00;;;;;;5037772;28;20445;-63
2023/06/12 00:02:31;;;;;;;2.42;1.70;;;25.70;45.00;;;;;;5039058;28;20036;-64
2023/06/12 00:04:57;;;;;;;2.22;1.60;;;25.70;45.00;;;;;;5035802;28;20079;-63
2023/06/12 00:07:25;;;;;;;1.98;1.40;;;25.70;45.00;;;;;;5035889;28;20037;-63
2023/06/12 00:09:51;;;;;;;2.30;1.77;;;25.70;45.00;;;;;;5035430;28;20075;-64
2023/06/12 00:12:17;;;;;;;2.40;1.60;;;25.70;45.10;;;;;;5032489;28;20033;-64
2023/06/12 00:14:43;;;;;;;2.47;1.77;;;25.70;45.10;;;;;;5035544;28;20480;-64
2023/06/12 00:17:08;;;;;;;2.10;1.60;;;25.60;45.00;;;;;;5029049;28;20045;-63
2023/06/12 00:19:34;;;;;;;2.08;1.50;;;25.70;45.10;;;;;;5033871;28;20456;-64
2023/06/12 00:22:00;;;;;;;2.53;1.85;;;25.70;45.10;;;;;;5035155;28;20029;-64
2023/06/12 00:24:25;;;;;;;2.30;1.70;;;25.70;45.10;;;;;;5034919;28;20087;-64
2023/06/12 00:26:51;;;;;;;2.00;1.65;;;25.60;45.10;;;;;;5018179;28;20029;-63
2023/06/12 00:29:17;;;;;;;1.98;1.58;;;25.70;45.10;;;;;;5032271;28;20425;-64
2023/06/12 00:31:43;;;;;;;2.50;1.67;;;25.60;45.10;;;;;;5019664;28;20408;-64
2023/06/12 00:34:09;;;;;;;1.70;1.35;;;25.60;45.20;;;;;;5034909;28;20037;-64
2023/06/12 00:36:35;;;;;;;2.13;1.60;;;25.60;45.10;;;;;;5030881;28;20114;-63
2023/06/12 00:39:00;;;;;;;2.20;1.60;;;25.60;45.10;;;;;;5020506;28;20606;-64
2023/06/12 00:41:26;;;;;;;2.00;1.60;;;25.60;45.10;;;;;;5017479;28;20056;-63
2023/06/12 00:43:51;;;;;;;2.25;1.80;;;25.60;45.10;;;;;;5019883;28;20026;-64
2023/06/12 00:46:18;;;;;;;2.20;1.67;;;25.60;45.20;;;;;;5036313;28;20496;-63
2023/06/12 00:48:44;;;;;;;2.03;1.60;;;25.60;45.10;;;;;;5033833;28;20022;-64
2023/06/12 00:51:10;;;;;;;1.98;1.60;;;25.60;45.20;;;;;;5033755;28;20039;-63
2023/06/12 00:53:36;;;;;;;2.10;1.58;;;25.60;45.20;;;;;;5036685;28;20429;-64
2023/06/12 00:56:01;;;;;;;1.85;1.55;;;25.60;45.20;;;;;;5032363;28;20025;-64
2023/06/12 00:58:27;;;;;;;2.40;1.70;;;25.60;45.20;;;;;;5031482;28;20382;-64
2023/06/12 01:00:54;;;;;;;2.25;1.63;;;25.60;45.70;;;;;;5035866;28;20036;-63
2023/06/12 01:03:21;;;;;;;2.08;1.58;;;25.60;45.20;;;;;;5033550;28;20613;-63
2023/06/12 01:05:47;;;;;;;1.77;1.45;;;25.60;45.20;;;;;;5032401;28;20071;-64
2023/06/12 01:08:28;;;;;;;2.20;1.60;;;25.60;45.20;;;;;;5034176;28;20026;-64
2023/06/12 01:10:58;;;;;;;1.90;1.40;;;25.50;45.10;;;;;;5031216;28;20082;-63
2023/06/12 01:13:24;;;;;;;1.70;1.50;;;25.60;45.30;;;;;;5033940;28;20021;-64
2023/06/12 01:15:49;;;;;;;2.17;1.52;;;25.60;45.30;;;;;;5033699;28;20110;-63
2023/06/12 01:18:16;;;;;;;2.17;1.70;;;25.60;45.30;;;;;;5033936;28;20147;-64
2023/06/12 01:20:43;;;;;;;2.00;1.50;;;25.60;45.30;;;;;;5034650;28;20025;-64
2023/06/12 01:23:27;;;;;;;1.73;1.40;;;25.60;45.30;;;;;;5031432;28;20122;-64
2023/06/12 01:26:07;;;;;;;1.77;1.45;;;25.60;45.30;;;;;;5015840;28;20378;-63
2023/06/12 01:29:01;;;;;;;1.88;1.42;;;25.60;45.30;;;;;;5034962;28;20028;-64
2023/06/12 01:31:38;;;;;;;2.10;1.55;;;25.60;45.30;;;;;;5040401;28;20480;-64
2023/06/12 01:34:20;;;;;;;2.00;1.50;;;25.60;45.30;;;;;;5034748;28;20477;-63
2023/06/12 01:36:55;;;;;;;2.17;1.60;;;25.60;45.30;;;;;;5040244;28;20159;-64
2023/06/12 01:39:23;;;;;;;2.00;1.60;;;25.60;45.30;;;;;;5031973;28;20559;-63
2023/06/12 01:41:48;;;;;;;2.17;1.58;;;25.60;45.30;;;;;;5034735;28;20618;-64
2023/06/12 01:44:16;;;;;;;2.20;1.50;;;25.50;45.30;;;;;;5039711;28;20032;-64
2023/06/12 01:46:42;;;;;;;2.50;1.70;;;25.60;45.40;;;;;;5036160;28;20027;-64
2023/06/12 01:49:08;;;;;;;2.20;1.50;;;25.60;45.40;;;;;;5019127;28;20416;-64
2023/06/12 01:51:33;;;;;;;2.00;1.60;;;25.50;45.30;;;;;;5038306;28;20029;-63
2023/06/12 01:54:00;;;;;;;2.33;1.80;;;25.50;45.30;;;;;;5034899;28;20030;-63
2023/06/12 01:56:27;;;;;;;1.80;1.48;;;25.60;45.40;;;;;;5036508;28;20032;-63
2023/06/12 01:58:54;;;;;;;1.80;1.50;;;25.50;45.30;;;;;;5040490;28;20025;-64
2023/06/12 02:01:20;;;;;;;1.92;1.52;;;25.50;45.90;;;;;;5035659;28;20061;-64
2023/06/12 02:03:47;;;;;;;2.20;1.70;;;25.50;45.30;;;;;;5035907;28;20028;-64
2023/06/12 02:06:16;;;;;;;2.00;1.60;;;25.50;45.30;;;;;;5035539;28;20025;-63
2023/06/12 02:08:42;;;;;;;2.08;1.58;;;25.50;45.40;;;;;;5035331;28;20497;-64
2023/06/12 02:11:08;;;;;;;2.13;1.65;;;25.50;45.40;;;;;;5036174;28;20534;-64
2023/06/12 02:13:33;;;;;;;2.10;1.60;;;25.50;45.40;;;;;;5038267;28;20037;-64
2023/06/12 02:16:03;;;;;;;2.58;1.70;;;25.50;45.40;;;;;;5036755;28;20025;-64
2023/06/12 02:18:28;;;;;;;;;;;25.50;45.40;;;;;;5038231;28;20013;-63
2023/06/12 02:20:54;;;;;;;2.40;1.60;;;25.50;45.40;;;;;;5037352;28;20249;-63
2023/06/12 02:23:20;;;;;;;1.80;1.50;;;25.50;45.40;;;;;;5036337;28;20036;-63
2023/06/12 02:25:45;;;;;;;2.15;1.52;;;25.50;45.40;;;;;;5032241;28;20035;-63
2023/06/12 02:28:11;;;;;;;2.30;1.48;;;25.50;45.40;;;;;;5035018;28;20055;-63
2023/06/12 02:30:37;;;;;;;1.90;1.50;;;25.50;45.40;;;;;;5036679;28;20036;-64
2023/06/12 02:33:09;;;;;;;2.10;1.42;;;25.50;45.40;;;;;;5015223;28;20055;-64
2023/06/12 02:35:38;;;;;;;1.95;1.40;;;25.50;45.40;;;;;;5035370;28;20108;-64
2023/06/12 02:38:03;;;;;;;2.00;1.60;;;25.50;45.40;;;;;;5037693;28;20063;-64
2023/06/12 02:40:29;;;;;;;1.75;1.40;;;25.50;45.40;;;;;;5037506;28;20111;-63
2023/06/12 02:42:55;;;;;;;1.95;1.60;;;25.40;45.40;;;;;;5035217;28;20043;-63
2023/06/12 02:45:23;;;;;;;2.05;1.50;;;25.50;45.50;;;;;;5039485;28;20687;-64
2023/06/12 02:47:49;;;;;;;1.58;1.30;;;25.50;45.50;;;;;;5033467;28;20037;-64
2023/06/12 02:50:16;;;;;;;1.98;1.48;;;25.40;45.40;;;;;;5037105;28;20034;-63
2023/06/12 02:52:41;;;;;;;1.70;1.40;;;25.40;45.40;;;;;;5035822;28;20112;-64
2023/06/12 02:55:07;;;;;;;1.80;1.50;;;25.40;45.40;;;;;;5036459;28;20104;-64
2023/06/12 02:57:33;;;;;;;2.05;1.65;;;25.50;45.50;;;;;;5035077;28;20029;-64
2023/06/12 02:59:59;;;;;;;1.70;1.50;;;25.50;45.50;;;;;;5039588;28;20082;-64
2023/06/12 03:02:25;;;;;;;2.10;1.63;;;25.40;45.40;;;;;;5036471;28;20099;-63
2023/06/12 03:04:52;;;;;;;1.90;1.40;;;25.40;45.40;;;;;;5036923;28;20029;-63
2023/06/12 03:07:18;;;;;;;1.77;1.40;;;25.40;45.40;;;;;;5036686;28;20388;-63
2023/06/12 03:09:44;;;;;;;2.08;1.58;;;25.40;45.40;;;;;;5036468;28;20022;-64
2023/06/12 03:12:11;;;;;;;1.65;1.45;;;25.40;45.50;;;;;;5035689;28;20029;-64
2023/06/12 03:14:38;;;;;;;1.83;1.45;;;25.40;45.50;;;;;;5035948;28;20284;-63
2023/06/12 03:17:04;;;;;;;1.90;1.60;;;25.40;45.50;;;;;;5037986;28;20116;-64
2023/06/12 03:19:31;;;;;;;1.80;1.40;;;25.40;45.50;;;;;;5037895;28;20559;-64
2023/06/12 03:21:56;;;;;;;2.20;1.60;;;25.40;45.50;;;;;;5033330;28;20029;-63
2023/06/12 03:24:24;;;;;;;2.13;1.55;;;25.40;45.50;;;;;;5040148;28;20044;-63
2023/06/12 03:26:49;;;;;;;1.90;1.50;;;25.40;45.50;;;;;;5031501;28;20047;-64
2023/06/12 03:29:15;;;;;;;2.30;1.73;;;25.40;45.50;;;;;;5037180;28;20029;-64
2023/06/12 03:31:41;;;;;;;1.52;1.30;;;25.40;46.00;;;;;;5035030;28;20187;-64
2023/06/12 03:34:07;;;;;;;1.90;1.52;;;25.40;45.50;;;;;;5019777;28;20033;-64
2023/06/12 03:36:33;;;;;;;1.75;1.50;;;25.40;45.50;;;;;;5034122;28;20464;-63
2023/06/12 03:39:00;;;;;;;1.85;1.40;;;25.40;45.50;;;;;;5039470;28;20056;-62
2023/06/12 03:41:29;;;;;;;2.97;1.50;;;25.40;45.50;;;;;;5018746;28;20022;-62
2023/06/12 03:43:55;;;;;;;2.22;1.50;;;25.40;45.50;;;;;;5033653;28;20151;-65
2023/06/12 03:46:20;;;;;;;2.13;1.48;;;25.40;45.50;;;;;;5017562;28;20124;-64
2023/06/12 03:48:46;;;;;;;1.90;1.40;;;25.40;45.60;;;;;;5018275;28;20468;-65
2023/06/12 03:51:12;;;;;;;2.33;1.52;;;25.40;45.60;;;;;;5032722;28;20021;-64
2023/06/12 03:53:41;;;;;;;2.60;1.50;;;25.40;45.60;;;;;;5001318;28;20410;-65
2023/06/12 03:56:07;;;;;;;1.88;1.52;;;25.40;45.60;;;;;;5036565;28;20024;-64
2023/06/12 03:58:33;;;;;;;1.73;1.40;;;25.40;45.60;;;;;;5034073;28;20515;-64
2023/06/12 04:00:58;;;;;;;2.17;1.50;;;25.40;45.60;;;;;;5033877;28;20472;-64
2023/06/12 04:03:25;;;;;;;1.95;1.50;;;25.40;45.60;;;;;;5033073;28;20542;-64
2023/06/12 04:05:51;;;;;;;1.85;1.45;;;25.30;45.50;;;;;;5030832;28;20033;-64
2023/06/12 04:08:17;;;;;;;2.38;1.67;;;25.40;45.60;;;;;;5036928;28;20023;-64
2023/06/12 04:10:44;;;;;;;2.00;1.55;;;25.40;45.60;;;;;;5036619;28;20030;-64
2023/06/12 04:13:12;;;;;;;2.08;1.58;;;25.30;45.50;;;;;;5032044;28;20052;-64
2023/06/12 04:15:39;;;;;;;2.13;1.60;;;25.40;45.60;;;;;;5034396;28;20481;-64
2023/06/12 04:18:05;;;;;;;1.92;1.50;;;25.40;45.60;;;;;;5033250;28;20421;-65
2023/06/12 04:20:34;;;;;;;1.90;1.55;;;25.30;45.50;;;;;;5036361;28;20079;-66
2023/06/12 04:23:04;;;;;;;2.20;1.60;;;25.30;45.60;;;;;;5035575;28;20025;-65
2023/06/12 04:25:31;;;;;;;1.90;1.60;;;25.30;45.60;;;;;;5035932;28;20152;-65
2023/06/12 04:27:57;;;;;;;1.80;1.52;;;25.30;45.60;;;;;;5035813;28;20033;-66
2023/06/12 04:30:23;;;;;;;1.85;1.48;;;25.40;45.70;;;;;;5032900;28;20033;-66
2023/06/12 04:32:48;;;;;;;1.95;1.52;;;25.30;45.60;;;;;;5035702;28;20369;-65
2023/06/12 04:35:16;;;;;;;2.17;1.60;;;25.30;45.70;;;;;;5030564;28;20030;-65
2023/06/12 04:37:42;;;;;;;2.20;1.70;;;25.30;45.70;;;;;;5034014;28;20131;-65
2023/06/12 04:40:11;;;;;;;2.10;1.70;;;25.30;45.60;;;;;;5020040;28;20350;-66
2023/06/12 04:42:37;;;;;;;2.53;1.60;;;25.30;45.70;;;;;;5033341;28;20013;-66
2023/06/12 04:45:04;;;;;;;2.10;1.60;;;25.30;45.70;;;;;;5001658;28;20053;-66
2023/06/12 04:47:30;;;;;;;2.25;1.80;;;25.30;45.70;;;;;;5016304;28;20123;-65
2023/06/12 04:49:57;;;;;;;2.15;1.50;;;25.30;45.70;;;;;;5032626;28;20104;-66
2023/06/12 04:52:24;;;;;;;2.83;1.70;;;25.30;45.70;;;;;;5032796;28;20030;-66
2023/06/12 04:54:52;;;;;;;2.30;1.88;;;25.30;45.70;;;;;;5020426;28;20631;-65
2023/06/12 04:57:18;;;;;;;1.88;1.50;;;25.30;45.70;;;;;;5015898;28;20473;-65
2023/06/12 04:59:45;;;;;;;2.00;1.60;;;25.30;45.70;;;;;;5033999;28;20438;-66
2023/06/12 05:02:11;;;;;;;1.85;1.60;;;25.30;45.70;;;;;;5033358;28;20410;-65
2023/06/12 05:04:38;;;;;;;2.50;1.90;;;25.30;45.80;;;;;;5018989;28;20033;-65
2023/06/12 05:07:08;;;;;;;2.17;1.70;;;25.30;46.30;;;;;;5036210;28;20049;-66
2023/06/12 05:09:33;;;;;;;2.00;1.70;;;25.30;45.70;;;;;;5037561;28;20060;-66
2023/06/12 05:12:00;;;;;;;2.10;1.70;;;25.30;45.70;;;;;;5038729;28;20064;-65
2023/06/12 05:14:27;;;;;;;1.80;1.40;;;25.30;45.80;;;;;;5034406;28;20021;-66
2023/06/12 05:16:54;;;;;;;1.80;1.60;;;25.30;45.80;;;;;;5039719;28;20052;-66
2023/06/12 05:19:19;;;;;;;1.85;1.58;;;25.30;45.80;;;;;;5036922;28;20028;-66
2023/06/12 05:21:45;;;;;;;1.70;1.40;;;25.30;45.80;;;;;;5037947;28;20059;-66
2023/06/12 05:24:10;;;;;;;2.20;1.70;;;25.20;45.70;;;;;;5023391;28;20026;-65
2023/06/12 05:26:37;;;;;;;1.90;1.55;;;25.30;45.80;;;;;;5040001;28;20143;-65
2023/06/12 05:29:03;;;;;;;2.30;1.73;;;25.20;45.70;;;;;;5022549;28;20026;-66
2023/06/12 05:31:29;;;;;;;2.03;1.63;;;25.30;45.90;;;;;;5020658;28;20029;-66
2023/06/12 05:33:55;;;;;;;2.00;1.60;;;25.20;45.80;;;;;;5035637;28;20037;-66
2023/06/12 05:36:20;;;;;;;1.92;1.58;;;25.20;45.80;;;;;;5038077;28;20112;-66
2023/06/12 05:38:46;;;;;;;2.10;1.75;;;25.20;45.80;;;;;;5020919;28;20182;-65
2023/06/12 05:41:16;;;;;;;2.10;1.67;;;25.20;45.80;;;;;;5004665;28;20026;-65
2023/06/12 05:43:44;;;;;;;2.20;1.80;;;25.20;45.80;;;;;;5034856;28;20029;-65
2023/06/12 05:46:10;;;;;;;2.40;1.83;;;25.20;45.80;;;;;;5037406;28;20040;-66
2023/06/12 05:48:36;;;;;;;2.20;1.80;;;25.20;45.80;;;;;;5036165;28;20104;-66
2023/06/12 05:51:03;;;;;;;2.40;1.85;;;25.20;45.80;;;;;;5035898;28;20026;-66
2023/06/12 05:53:28;;;;;;;2.90;1.80;;;25.20;45.90;;;;;;5036956;28;20022;-66
2023/06/12 05:55:54;;;;;;;2.33;1.73;;;25.20;46.20;;;;;;5035688;28;20045;-64
2023/06/12 05:58:21;;;;;;;2.10;1.70;;;25.20;46.30;;;;;;5036546;28;20025;-65
2023/06/12 06:00:49;;;;;;;1.95;1.70;;;25.20;46.40;;;;;;5020545;28;20071;-65
2023/06/12 06:03:15;;;;;;;2.10;1.67;;;25.20;46.30;;;;;;5036536;28;20025;-71
2023/06/12 06:05:41;;;;;;;2.60;1.65;;;25.20;46.20;;;;;;5037367;28;20498;-66
2023/06/12 06:08:06;;;;;;;2.10;1.70;;;25.30;46.40;;;;;;5038352;28;20060;-66
2023/06/12 06:10:32;;;;;;;2.75;1.70;;;25.30;46.50;;;;;;5037814;28;20124;-67
2023/06/12 06:12:57;;;;;;;3.63;2.00;;;25.30;46.40;;;;;;5034396;28;20022;-65
2023/06/12 06:15:23;;;;;;;2.80;1.70;;;25.30;46.40;;;;;;5035357;28;20376;-67
2023/06/12 06:17:49;;;;;;;2.63;1.90;;;25.30;46.50;;;;;;5039126;28;20128;-65
2023/06/12 06:20:15;;;;;;;2.25;1.80;;;25.30;46.40;;;;;;5035633;28;20071;-66
2023/06/12 06:22:43;;;;;;;2.22;1.73;;;25.30;46.30;;;;;;5039393;28;20361;-66
2023/06/12 06:25:09;;;;;;;2.67;1.88;;;25.40;46.30;;;;;;5040784;28;20029;-66
2023/06/12 06:27:35;;;;;;;2.47;2.05;;;25.40;46.50;;;;;;5034662;28;20029;-65
2023/06/12 06:30:02;;;;;;;2.78;1.80;;;25.40;46.50;;;;;;5033601;28;20037;-71
2023/06/12 06:32:27;;;;;;;2.00;1.67;;;25.40;46.60;;;;;;5036084;28;20042;-66
2023/06/12 06:34:54;;;;;;;2.60;1.90;;;25.40;46.40;;;;;;5035034;28;20508;-66
2023/06/12 06:37:20;;;;;;;2.58;1.90;;;25.40;46.40;;;;;;5037219;28;20022;-66
2023/06/12 06:39:46;;;;;;;2.58;1.90;;;25.50;46.30;;;;;;5037962;28;20381;-67
2023/06/12 06:42:12;;;;;;;2.58;1.98;;;25.50;46.30;;;;;;5036963;28;20025;-66
2023/06/12 06:44:38;;;;;;;3.20;1.92;;;25.50;46.50;;;;;;5033783;28;20041;-66
2023/06/12 06:47:04;;;;;;;2.65;1.73;;;25.50;46.40;;;;;;5038397;28;20029;-65
2023/06/12 06:49:30;;;;;;;2.72;1.90;;;25.50;46.40;;;;;;5019095;28;20022;-65
2023/06/12 06:51:56;;;;;;;3.70;2.00;;;25.60;46.40;;;;;;5034413;28;20033;-68
2023/06/12 06:54:22;;;;;;;2.60;1.90;;;25.60;46.80;;;;;;5024195;28;20494;-65
2023/06/12 06:56:48;;;;;;;3.05;1.90;;;25.60;46.40;;;;;;5021022;28;20163;-66
2023/06/12 06:59:17;;;;;;;3.35;1.92;;;25.60;46.40;;;;;;5029571;28;20062;-65
2023/06/12 07:01:42;;;;;;;3.05;1.92;;;25.70;46.60;;;;;;5022355;28;20436;-65
2023/06/12 07:04:08;;;;;;;2.67;2.10;;;25.70;46.40;;;;;;5033439;28;20037;-65
2023/06/12 07:06:33;;;;;;;3.25;2.20;;;25.70;46.30;;;;;;5032263;28;20040;-65
2023/06/12 07:09:00;;;;;;;4.35;2.28;;;25.70;46.20;;;;;;5035804;28;20029;-64
2023/06/12 07:11:27;;;;;;;3.17;2.20;;;25.70;46.20;;;;;;5036368;28;20477;-64
2023/06/12 07:13:52;;;;;;;3.17;2.20;;;25.70;46.10;;;;;;5016854;28;20018;-65
2023/06/12 07:16:19;;;;;;;2.60;2.03;;;25.70;46.10;;;;;;5022222;28;20092;-64
2023/06/12 07:18:44;;;;;;;2.90;2.15;;;25.80;46.10;;;;;;5035448;28;20048;-65
2023/06/12 07:21:10;;;;;;;2.88;2.22;;;25.70;46.00;;;;;;5038415;28;20037;-64
2023/06/12 07:23:36;;;;;;;4.03;2.00;;;25.80;46.10;;;;;;5019158;28;20059;-64
2023/06/12 07:26:01;;;;;;;2.75;2.10;;;25.80;46.00;;;;;;5034715;28;20032;-65
2023/06/12 07:28:27;;;;;;;2.50;1.95;;;25.80;46.00;;;;;;5018727;28;20120;-65
2023/06/12 07:30:53;;;;;;;2.65;2.00;;;25.70;45.90;;;;;;5037863;28;20033;-65
2023/06/12 07:33:18;;;;;;;2.63;2.10;;;25.80;45.90;;;;;;5036652;28;20080;-65
2023/06/12 07:35:44;;;;;;;2.88;2.30;;;25.80;45.90;;;;;;5037852;28;20115;-65
2023/06/12 07:38:09;;;;;;;2.95;2.00;;;25.70;45.90;;;;;;5018919;28;20025;-66
2023/06/12 07:40:35;;;;;;;2.65;2.03;;;25.70;45.90;;;;;;5030442;28;20033;-65
2023/06/12 07:43:01;;;;;;;2.95;2.10;;;25.70;45.90;;;;;;5033800;28;20040;-64
2023/06/12 07:45:26;;;;;;;2.90;2.10;;;25.70;45.80;;;;;;5034432;28;20040;-65
2023/06/12 07:47:54;;;;;;;4.50;2.45;;;25.80;45.90;;;;;;5033033;28;20029;-65
2023/06/12 07:50:20;;;;;;;2.40;1.90;;;25.70;45.80;;;;;;5035812;28;20049;-65
2023/06/12 07:52:46;;;;;;;2.60;2.05;;;25.70;45.80;;;;;;5036389;28;20025;-65
2023/06/12 07:55:11;;;;;;;2.42;1.98;;;25.80;45.90;;;;;;5033365;28;20477;-64
2023/06/12 07:57:37;;;;;;;2.60;2.10;;;25.80;45.80;;;;;;5033716;28;20021;-64
2023/06/12 08:00:09;;;;;;;3.40;2.17;;;25.70;45.80;;;;;;5033871;28;20021;-65
2023/06/12 08:02:35;;;;;;;2.60;2.13;;;25.70;45.80;;;;;;5037180;28;20030;-64
2023/06/12 08:05:03;;;;;;;3.00;2.20;;;25.70;45.80;;;;;;5033372;28;20078;-64
2023/06/12 08:07:30;;;;;;;3.47;2.03;;;25.70;46.30;;;;;;5035989;28;20140;-64
2023/06/12 08:09:56;;;;;;;2.55;2.10;;;25.70;45.80;;;;;;5033859;28;20025;-64
2023/06/12 08:12:21;;;;;;;2.90;2.20;;;25.70;45.80;;;;;;5034885;28;20033;-65
2023/06/12 08:14:48;;;;;;;2.50;2.10;;;25.70;46.30;;;;;;5033418;28;20504;-64
2023/06/12 08:17:14;;;;;;;2.80;2.30;;;25.70;45.80;;;;;;5033466;28;20389;-65
2023/06/12 08:19:41;;;;;;;2.80;2.10;;;25.70;45.80;;;;;;5033894;28;20025;-65
2023/06/12 08:22:09;;;;;;;2.63;2.00;;;25.70;45.80;;;;;;5033574;28;20021;-64
2023/06/12 08:24:36;;;;;;;2.92;2.00;;;25.70;45.80;;;;;;5034883;28;20029;-65
2023/06/12 08:27:04;;;;;;;2.47;2.15;;;25.70;45.80;;;;;;5034957;28;20043;-65
2023/06/12 08:29:30;;;;;;;3.85;2.30;;;25.60;45.70;;;;;;5032513;28;20024;-65
2023/06/12 08:31:56;;;;;;;2.53;2.10;;;25.60;45.70;;;;;;5035411;28;20033;-65
2023/06/12 08:34:26;;;;;;;2.65;2.10;;;25.60;45.70;;;;;;5036655;28;20373;-65
2023/06/12 08:36:53;;;;;;;2.85;2.20;;;25.60;45.70;;;;;;5033905;28;20059;-64
2023/06/12 08:39:19;;;;;;;3.55;2.35;;;25.60;45.80;;;;;;5020389;28;20161;-65
2023/06/12 08:42:07;;;;;;;2.85;2.10;;;25.60;45.70;;;;;;5037918;28;20093;-66
2023/06/12 08:44:33;;;;;;;3.10;2.28;;;25.60;45.70;;;;;;5006141;28;20041;-64
2023/06/12 08:47:03;;;;;;;2.58;2.15;;;25.60;45.80;;;;;;5025104;28;20032;-65
2023/06/12 08:49:30;;;;;;;2.83;2.17;;;25.60;45.70;;;;;;5037329;28;20116;-65
2023/06/12 08:51:56;;;;;;;2.92;1.98;;;25.60;45.70;;;;;;5038419;28;20034;-64
2023/06/12 08:54:22;;;;;;;3.35;2.53;;;25.60;45.70;;;;;;5038662;28;20582;-65
2023/06/12 08:56:50;;;;;;;2.63;2.17;;;25.60;45.70;;;;;;5039978;28;20026;-64
2023/06/12 08:59:16;;;;;;;2.50;2.05;;;25.60;45.70;;;;;;5036373;28;20131;-64
2023/06/12 09:01:42;;;;;;;3.10;2.20;;;25.60;45.70;;;;;;5021449;28;20041;-65
2023/06/12 09:04:37;;;;;;;3.08;2.20;;;25.60;45.80;;;;;;5035386;28;20469;-65
2023/06/12 09:07:03;;;;;;;2.60;2.08;;;25.60;45.70;;;;;;5034070;28;20029;-65
2023/06/12 09:09:37;;;;;;;2.50;2.00;;;25.50;45.70;;;;;;5033663;28;20025;-65
2023/06/12 09:12:04;;;;;;;3.60;2.10;;;25.60;45.70;;;;;;5036192;28;20118;-64
2023/06/12 09:14:34;;;;;;;2.50;2.10;;;25.50;45.60;;;;;;5037894;28;20032;-65
2023/06/12 09:17:00;;;;;;;2.50;2.10;;;25.50;45.70;;;;;;5036130;28;20028;-64
2023/06/12 09:19:34;;;;;;;2.88;2.30;;;25.60;46.20;;;;;;5020373;28;20484;-64
2023/06/12 09:22:01;;;;;;;3.00;2.17;;;25.50;45.60;;;;;;5007961;28;20450;-65
2023/06/12 09:24:27;;;;;;;2.90;2.20;;;25.60;45.70;;;;;;5035509;28;20025;-64
2023/06/12 09:26:55;;;;;;;2.60;2.15;;;25.60;45.70;;;;;;5036900;28;20481;-65
2023/06/12 09:29:31;;;;;;;2.60;2.15;;;25.50;45.60;;;;;;5036430;28;20481;-64
2023/06/12 09:32:05;;;;;;;2.58;2.00;;;25.50;45.60;;;;;;5032068;28;20036;-65
2023/06/12 09:34:32;;;;;;;2.80;2.25;;;25.50;45.50;;;;;;5036576;28;20435;-65
2023/06/12 09:36:59;;;;;;;3.05;2.30;;;25.50;45.60;;;;;;5021220;28;20033;-64
2023/06/12 09:39:29;;;;;;;2.63;2.10;;;25.50;45.60;;;;;;5038076;28;20029;-64
2023/06/12 09:41:55;;;;;;;2.70;2.10;;;25.50;45.50;;;;;;5022891;28;20033;-65
2023/06/12 09:44:22;;;;;;;2.80;2.35;;;25.50;45.50;;;;;;5017338;28;20511;-65
2023/06/12 09:46:50;;;;;;;2.75;2.03;;;25.50;45.50;;;;;;5038560;28;20123;-64
2023/06/12 09:49:19;;;;;;;3.60;2.10;;;25.50;45.50;;;;;;5037699;28;20507;-64
2023/06/12 09:51:49;;;;;;;2.78;2.00;;;25.50;45.50;;;;;;5016104;28;20062;-64
2023/06/12 09:54:16;;;;;;;3.13;2.10;;;25.50;45.50;;;;;;5034344;28;20046;-64
2023/06/12 09:56:47;;;;;;;2.50;2.08;;;25.50;45.50;;;;;;5031956;28;20141;-64
2023/06/12 09:59:18;;;;;;;2.35;2.00;;;25.50;45.50;;;;;;5037899;28;20166;-65
2023/06/12 10:01:51;;;;;;;3.10;2.30;;;25.50;45.50;;;;;;5032281;28;20476;-64
2023/06/12 10:04:34;;;;;;;2.38;2.10;;;25.50;45.50;;;;;;5034866;28;20060;-64
2023/06/12 10:07:06;;;;;;;2.58;2.10;;;25.50;45.40;;;;;;5036994;28;20478;-64
2023/06/12 10:09:32;;;;;;;2.72;2.22;;;25.50;45.40;;;;;;5038381;28;20555;-64
2023/06/12 10:11:59;;;;;;;2.78;2.17;;;25.40;45.30;;;;;;5036845;28;20064;-65
2023/06/12 10:14:29;;;;;;;2.50;2.03;;;25.40;45.30;;;;;;5017216;28;20129;-64
2023/06/12 10:16:59;;;;;;;2.92;2.10;;;25.40;45.30;;;;;;5034732;28;20037;-64
2023/06/12 10:19:25;;;;;;;2.85;2.10;;;25.40;45.30;;;;;;5036878;28;20022;-64
2023/06/12 10:21:53;;;;;;;2.72;2.00;;;25.40;45.30;;;;;;5035197;28;20036;-65
2023/06/12 10:24:21;;;;;;;2.63;2.00;;;25.40;45.30;;;;;;5035814;28;20576;-65
2023/06/12 10:26:48;;;;;;;2.75;2.00;;;25.40;45.30;;;;;;5037411;28;20389;-64
2023/06/12 10:29:27;;;;;;;2.70;2.05;;;25.40;45.30;;;;;;5036879;28;20083;-65
2023/06/12 10:31:53;;;;;;;;;;;25.40;45.30;;;;;;5034582;28;20033;-65
2023/06/12 10:34:20;;;;;;;2.83;2.08;;;25.40;45.30;;;;;;5038005;28;19916;-64
2023/06/12 10:36:47;;;;;;;2.50;2.10;;;25.40;45.30;;;;;;5018952;28;20075;-64
2023/06/12 10:39:24;;;;;;;3.13;2.20;;;25.40;45.30;;;;;;5032552;28;20490;-65
2023/06/12 10:41:57;;;;;;;2.45;1.90;;;25.40;45.30;;;;;;5030864;28;20111;-65
2023/06/12 10:44:35;;;;;;;2.58;1.98;;;25.40;45.40;;;;;;5034130;28;20389;-64
2023/06/12 10:47:02;;;;;;;3.13;2.00;;;25.40;45.40;;;;;;5037372;28;20408;-65
2023/06/12 10:49:27;;;;;;;2.22;1.85;;;25.40;45.40;;;;;;5033414;28;20022;-64
2023/06/12 10:51:53;;;;;;;2.60;2.00;;;25.40;45.40;;;;;;5038716;28;20031;-64
2023/06/12 10:54:26;;;;;;;2.85;2.20;;;25.40;45.40;;;;;;5019527;28;20044;-64
2023/06/12 10:56:59;;;;;;;2.60;1.98;;;25.40;45.40;;;;;;5037118;28;20021;-65
2023/06/12 10:59:35;;;;;;;2.45;2.03;;;25.40;45.40;;;;;;5039162;28;20034;-64
2023/06/12 11:02:04;;;;;;;2.58;2.08;;;25.40;45.40;;;;;;5038020;28;20037;-65
2023/06/12 11:04:40;;;;;;;2.60;2.20;;;25.40;45.50;;;;;;5003406;28;20029;-64
2023/06/12 11:07:06;;;;;;;2.42;2.00;;;25.40;45.50;;;;;;5039076;28;20036;-65
2023/06/12 11:09:41;;;;;;;2.38;1.90;;;25.40;45.50;;;;;;5036287;28;20037;-65
2023/06/12 11:12:10;;;;;;;2.97;2.20;;;25.40;45.50;;;;;;5035953;28;20025;-65
2023/06/12 11:14:35;;;;;;;2.67;1.90;;;25.40;45.50;;;;;;5035473;28;20124;-64
2023/06/12 11:17:01;;;;;;;2.30;1.90;;;25.40;45.50;;;;;;5037724;28;20492;-65
2023/06/12 11:19:30;;;;;;;2.53;1.92;;;25.40;45.50;;;;;;5037630;28;20104;-65
2023/06/12 11:21:56;;;;;;;2.40;1.98;;;25.40;45.50;;;;;;5023424;28;20536;-64
2023/06/12 11:24:22;;;;;;;3.00;2.20;;;25.40;45.50;;;;;;5034636;28;20112;-65
2023/06/12 11:26:52;;;;;;;2.50;1.98;;;25.40;45.50;;;;;;5017735;28;20514;-65
2023/06/12 11:29:21;;;;;;;2.72;2.10;;;25.40;45.50;;;;;;5036838;28;20071;-65
2023/06/12 11:31:58;;;;;;;;;;;25.40;45.50;;;;;;5033498;28;20031;-65
2023/06/12 11:34:24;;;;;;;3.30;1.98;;;25.40;45.50;;;;;;5017026;28;19909;-65
2023/06/12 11:36:50;;;;;;;2.40;1.90;;;25.40;45.50;;;;;;5033176;28;20032;-64
2023/06/12 11:39:19;;;;;;;2.47;1.80;;;25.40;45.50;;;;;;5034184;28;20078;-64
2023/06/12 11:41:48;;;;;;;2.90;2.28;;;25.40;45.60;;;;;;5037047;28;20025;-66
2023/06/12 11:44:17;;;;;;;2.30;1.80;;;25.40;45.60;;;;;;5034551;28;20045;-65
2023/06/12 11:46:44;;;;;;;2.30;1.90;;;25.40;45.60;;;;;;5035758;28;20103;-66
2023/06/12 11:49:13;;;;;;;2.55;1.80;;;25.40;45.60;;;;;;5032775;28;20037;-66
2023/06/12 11:51:39;;;;;;;2.60;2.00;;;25.30;45.50;;;;;;5032645;28;20534;-65
2023/06/12 11:54:07;;;;;;;2.92;1.98;;;25.40;45.60;;;;;;5020914;28;20071;-66
2023/06/12 11:56:33;;;;;;;3.22;1.98;;;25.40;45.60;;;;;;5036377;28;20021;-66
2023/06/12 11:58:58;;;;;;;2.50;1.95;;;25.30;45.50;;;;;;5035129;28;20034;-66
2023/06/12 12:01:25;;;;;;;2.40;1.95;;;25.40;45.60;;;;;;5032286;28;20491;-66
2023/06/12 12:03:52;;;;;;;2.40;1.90;;;25.40;45.60;;;;;;5032279;28;20022;-66
2023/06/12 12:06:18;;;;;;;2.42;1.90;;;25.40;45.60;;;;;;5032812;28;20099;-66
2023/06/12 12:08:44;;;;;;;2.58;2.00;;;25.40;45.60;;;;;;5033106;28;20082;-66
2023/06/12 12:11:20;;;;;;;2.45;1.98;;;25.40;45.70;;;;;;5032806;28;20120;-66
2023/06/12 12:13:50;;;;;;;2.00;1.75;;;25.40;45.60;;;;;;5035977;28;20512;-66
2023/06/12 12:16:21;;;;;;;2.20;1.80;;;25.40;45.70;;;;;;5033606;28;20129;-66
2023/06/12 12:18:46;;;;;;;2.30;1.73;;;25.40;45.70;;;;;;5033287;28;20040;-66
2023/06/12 12:21:16;;;;;;;3.05;2.10;;;25.40;45.70;;;;;;5034600;28;20035;-66
2023/06/12 12:23:42;;;;;;;2.42;1.80;;;25.40;45.70;;;;;;5032764;28;20047;-66
2023/06/12 12:26:12;;;;;;;2.42;1.98;;;25.40;45.70;;;;;;5017855;28;20037;-66
2023/06/12 12:28:38;;;;;;;2.30;1.80;;;25.40;45.70;;;;;;5037446;28;20033;-66
2023/06/12 12:31:03;;;;;;;2.72;1.90;;;25.40;45.60;;;;;;5032723;28;20068;-66
2023/06/12 12:33:29;;;;;;;2.20;1.70;;;25.40;45.70;;;;;;5031241;28;20033;-66
2023/06/12 12:35:58;;;;;;;2.30;1.90;;;25.40;45.70;;;;;;5035941;28;20077;-66
2023/06/12 12:38:24;;;;;;;;;;;25.40;45.60;;;;;;5036948;28;20477;-66
2023/06/12 12:40:49;;;;;;;2.15;1.67;;;25.40;45.60;;;;;;5035464;28;19915;-66
2023/06/12 12:43:15;;;;;;;2.45;1.90;;;25.40;45.60;;;;;;5034249;28;20071;-66
2023/06/12 12:45:41;;;;;;;2.50;1.95;;;25.40;45.60;;;;;;5017804;28;20450;-66
2023/06/12 12:48:06;;;;;;;2.63;1.98;;;25.40;45.60;;;;;;5033621;28;20040;-66